Wilson Astakos — 9HA2370 — position and weather

sailwx.info

Track history (hours):
 
Tides and Currents Weather Stations Pressure Air Temp Water Temp Dewpoint Dewpoint Depression Visibility Wind Speed Wind Dir Waves Ship Positions

Wilson Astakos

Last reported at 2018-Jan-22 18:00 UTC. Time now 2018-Jan-22 18:27 UTC.
Position N 71°08' E 023°43'.

Length 89 m; draft 5.2 m.

Type: Cargo ship. MMSI: 248448000.

Date/timePositionNaut miles runAvg speedWind from/ knotsBaromVisibWave heightAir tempDewpointWater temp
2018-Jan-22 18:00N 71°08' E 023°43'4 8.0
2018-Jan-22 17:30N 71°10' E 023°54'4 8.2
2018-Jan-22 17:01N 71°11' E 024°07'4 8.1
2018-Jan-22 16:29N 71°11' E 024°20'4 8.0
2018-Jan-22 16:00N 71°11' E 024°32'4 8.1
2018-Jan-22 15:30N 71°12' E 024°44'4 8.0
2018-Jan-22 15:00N 71°12' E 024°57'4 8.3
2018-Jan-22 14:30N 71°13' E 025°10'4 9.0
2018-Jan-22 14:00N 71°13' E 025°23'5 9.7
2018-Jan-22 13:30N 71°14' E 025°38'5 9.8
2018-Jan-22 13:00N 71°14' E 025°54'5 9.7
2018-Jan-22 12:30N 71°14' E 026°09'5 9.7
2018-Jan-22 12:01N 71°14' E 026°23'5 9.0
2018-Jan-22 11:29N 71°13' E 026°38'4 8.8
2018-Jan-22 11:00N 71°13' E 026°51'5 9.3
2018-Jan-22 10:30N 71°12' E 027°06'5 9.7
2018-Jan-22 09:59N 71°12' E 027°21'4 8.3
2018-Jan-22 09:30N 71°12' E 027°33'4 8.1
2018-Jan-22 08:59N 71°11' E 027°46'4 8.1
2018-Jan-22 08:30N 71°11' E 027°58'4 8.5
2018-Jan-22 08:00N 71°10' E 028°11'4 8.7
2018-Jan-22 07:30N 71°08' E 028°23'5 9.0
2018-Jan-22 07:00N 71°06' E 028°36'5 9.3
2018-Jan-22 06:30N 71°04' E 028°48'5 9.5
2018-Jan-22 06:00N 71°01' E 029°00'4 8.7
2018-Jan-22 05:30N 70°59' E 029°12'4 8.7
2018-Jan-22 05:00N 70°57' E 029°23'5 9.2
2018-Jan-22 04:30N 70°55' E 029°36'5 9.1
2018-Jan-22 04:00N 70°52' E 029°48'5 9.1
2018-Jan-22 03:30N 70°50' E 029°60'4 8.9
2018-Jan-22 03:00N 70°48' E 030°11'4 8.7
2018-Jan-22 02:30N 70°46' E 030°23'4 8.5
2018-Jan-22 01:59N 70°43' E 030°33'4 8.6
2018-Jan-22 01:31N 70°41' E 030°43'5 9.2
2018-Jan-22 00:59N 70°38' E 030°55'5 9.6
2018-Jan-22 00:30N 70°35' E 031°05'5 9.5
2018-Jan-22 00:00N 70°32' E 031°17'4 9.0
2018-Jan-21 23:30N 70°29' E 031°27'4 9.0
2018-Jan-21 23:00N 70°26' E 031°38'89 7.9
2018-Jan-21 11:49N 69°05' E 033°19'310.1
2018-Jan-21 11:30N 69°04' E 033°10'4 7.5
2018-Jan-21 11:00N 69°01' E 033°03'2 4.1
2018-Jan-21 10:28N 68°59' E 033°02'0 0.0
2018-Jan-21 09:58N 68°59' E 033°02'0 0.0
2018-Jan-21 09:28N 68°59' E 033°02'0 0.0
2018-Jan-21 08:58N 68°59' E 033°02'0 0.0
2018-Jan-21 08:28N 68°59' E 033°02'0 0.0
2018-Jan-21 07:58N 68°59' E 033°02'0 0.0
2018-Jan-21 07:28N 68°59' E 033°02'0 0.1
2018-Jan-21 06:58N 68°59' E 033°02'0 0.1
2018-Jan-21 06:28N 68°59' E 033°02'0 0.0
2018-Jan-21 05:58N 68°59' E 033°02'0 0.0
2018-Jan-21 05:28N 68°59' E 033°02'0 0.1
2018-Jan-21 04:58N 68°59' E 033°02'0 0.1
2018-Jan-21 04:28N 68°59' E 033°02'0 0.0
2018-Jan-21 03:58N 68°59' E 033°02'0 1.0
2018-Jan-21 03:30N 68°59' E 033°03'0 0.4
2018-Jan-21 02:59N 68°59' E 033°03'0 0.0
2018-Jan-21 02:29N 68°59' E 033°03'0 0.0
2018-Jan-21 01:59N 68°59' E 033°03'0 0.0
2018-Jan-21 01:29N 68°59' E 033°03'0 0.0
2018-Jan-21 00:59N 68°59' E 033°03'0 0.0
2018-Jan-21 00:29N 68°59' E 033°03'0 0.0
2018-Jan-20 23:59N 68°59' E 033°03'0 0.0
2018-Jan-20 23:29N 68°59' E 033°03'0 0.0
2018-Jan-20 22:59N 68°59' E 033°03'0 0.0
2018-Jan-20 22:29N 68°59' E 033°03'0 0.0
2018-Jan-20 21:59N 68°59' E 033°03'0 0.0
2018-Jan-20 21:29N 68°59' E 033°03'0 0.0
2018-Jan-20 20:59N 68°59' E 033°03'0 0.0
2018-Jan-20 20:29N 68°59' E 033°03'0 0.0
2018-Jan-20 19:59N 68°59' E 033°03'0 0.0
2018-Jan-20 19:29N 68°59' E 033°03'0 0.0
2018-Jan-20 18:59N 68°59' E 033°03'0 0.0
2018-Jan-20 18:29N 68°59' E 033°03'0 0.0
2018-Jan-20 17:59N 68°59' E 033°03'0 0.0
2018-Jan-20 17:29N 68°59' E 033°03'0 0.0
2018-Jan-20 16:59N 68°59' E 033°03'0 0.0
2018-Jan-20 16:29N 68°59' E 033°03'0 0.0
2018-Jan-20 15:59N 68°59' E 033°03'0 0.0
2018-Jan-20 15:29N 68°59' E 033°03'0 0.0
2018-Jan-20 14:59N 68°59' E 033°03'0 0.0
2018-Jan-20 14:29N 68°59' E 033°03'0 0.0
2018-Jan-20 13:59N 68°59' E 033°03'0 0.0
2018-Jan-20 13:29N 68°59' E 033°03'0 0.0
2018-Jan-20 12:59N 68°59' E 033°03'0 0.0
2018-Jan-20 12:29N 68°59' E 033°03'0 0.0
2018-Jan-20 11:59N 68°59' E 033°03'0 0.0
2018-Jan-20 11:29N 68°59' E 033°03'0 0.0
2018-Jan-20 10:59N 68°59' E 033°03'0 0.0
2018-Jan-20 10:29N 68°59' E 033°03'0 0.0
2018-Jan-20 09:59N 68°59' E 033°03'0 0.0
2018-Jan-20 09:29N 68°59' E 033°03'0 0.0
2018-Jan-20 08:59N 68°59' E 033°03'0 0.0
2018-Jan-20 08:29N 68°59' E 033°03'0 0.0
2018-Jan-20 07:59N 68°59' E 033°03'0 0.0
2018-Jan-20 07:29N 68°59' E 033°03'0 0.0
2018-Jan-20 06:59N 68°59' E 033°03'0 0.0
2018-Jan-20 06:29N 68°59' E 033°03'0 0.0
2018-Jan-20 05:59N 68°59' E 033°03'0 0.0
2018-Jan-20 05:29N 68°59' E 033°03'0 0.0
2018-Jan-20 04:59N 68°59' E 033°03'0 0.0
2018-Jan-20 04:31N 68°59' E 033°03'1 1.1
2018-Jan-20 04:00N 68°59' E 033°03'3 6.4
2018-Jan-20 03:30N 69°02' E 033°03'4 8.5
2018-Jan-20 03:00N 69°04' E 033°14'5 9.6
2018-Jan-20 02:30N 69°07' E 033°25'84 8.3
2018-Jan-19 16:21N 70°24' E 031°46'3 9.1
2018-Jan-19 16:00N 70°26' E 031°39'5 9.2
2018-Jan-19 15:30N 70°29' E 031°28'5 9.9
2018-Jan-19 15:00N 70°32' E 031°16'510.2
2018-Jan-19 14:30N 70°35' E 031°04'5 9.8
2018-Jan-19 14:00N 70°38' E 030°52'5 9.8
2018-Jan-19 13:30N 70°41' E 030°40'5 9.7
2018-Jan-19 13:00N 70°44' E 030°28'5 9.6
2018-Jan-19 12:30N 70°47' E 030°17'5 9.5
2018-Jan-19 12:00N 70°49' E 030°05'4 8.9
2018-Jan-19 11:30N 70°52' E 029°53'4 8.5
2018-Jan-19 11:00N 70°54' E 029°42'4 8.3
2018-Jan-19 10:30N 70°56' E 029°31'4 8.2
2018-Jan-19 10:00N 70°58' E 029°20'4 8.2
2018-Jan-19 09:30N 70°60' E 029°09'4 8.1
2018-Jan-19 09:00N 71°01' E 028°58'4 8.4
2018-Jan-19 08:30N 71°04' E 028°47'4 8.3
2018-Jan-19 08:00N 71°06' E 028°36'4 8.8
2018-Jan-19 07:30N 71°08' E 028°24'5 9.4
2018-Jan-19 07:00N 71°10' E 028°11'510.1
2018-Jan-19 06:30N 71°11' E 027°56'510.7
2018-Jan-19 06:00N 71°11' E 027°39'511.0
2018-Jan-19 05:30N 71°12' E 027°22'510.6
2018-Jan-19 05:00N 71°12' E 027°06'510.5
2018-Jan-19 04:30N 71°13' E 026°50'610.7
2018-Jan-19 03:59N 71°14' E 026°33'510.8
2018-Jan-19 03:30N 71°14' E 026°17'510.6
2018-Jan-19 03:00N 71°14' E 026°00'510.6
2018-Jan-19 02:30N 71°14' E 025°44'510.7
2018-Jan-19 02:00N 71°13' E 025°27'510.9
2018-Jan-19 01:30N 71°13' E 025°10'611.5
2018-Jan-19 01:00N 71°12' E 024°52'510.6
2018-Jan-19 00:30N 71°12' E 024°36'510.4
2018-Jan-19 00:00N 71°11' E 024°20'510.5
2018-Jan-18 23:30N 71°10' E 024°04'511.0
2018-Jan-18 23:00N 71°09' E 023°48'611.3
2018-Jan-18 22:30N 71°07' E 023°32'510.8
2018-Jan-18 22:00N 71°04' E 023°17'510.4
2018-Jan-18 21:30N 71°02' E 023°03'5 9.7
2018-Jan-18 21:00N 70°60' E 022°50'5 9.6
2018-Jan-18 20:30N 70°57' E 022°36'5 9.7
2018-Jan-18 20:00N 70°56' E 022°22'510.0
2018-Jan-18 19:30N 70°54' E 022°08'610.8
2018-Jan-18 18:59N 70°51' E 021°53'510.3
2018-Jan-18 18:30N 70°49' E 021°39'21 8.8
2018-Jan-18 16:06N 70°41' E 020°40'0 5.3
2018-Jan-18 16:00N 70°41' E 020°40'4 8.8
2018-Jan-18 15:30N 70°37' E 020°32'5 9.5
2018-Jan-18 15:00N 70°35' E 020°20'5 9.4
2018-Jan-18 14:30N 70°33' E 020°07'5 9.6
2018-Jan-18 14:00N 70°30' E 019°54'510.0
2018-Jan-18 13:29N 70°28' E 019°40'5 9.5
2018-Jan-18 13:00N 70°26' E 019°28'510.6
2018-Jan-18 12:30N 70°24' E 019°14'511.0
2018-Jan-18 12:00N 70°21' E 018°59'611.0
2018-Jan-18 11:30N 70°19' E 018°45'510.7
2018-Jan-18 11:00N 70°16' E 018°30'510.8
2018-Jan-18 10:30N 70°12' E 018°21'610.9
2018-Jan-18 09:59N 70°07' E 018°12'510.8
2018-Jan-18 09:30N 70°03' E 018°04'510.6
2018-Jan-18 09:00N 69°59' E 017°55'510.4
2018-Jan-18 08:30N 69°54' E 017°47'510.1
2018-Jan-18 08:00N 69°49' E 017°46'510.8
2018-Jan-18 07:30N 69°44' E 017°47'510.9
2018-Jan-18 07:00N 69°38' E 017°49'611.3
2018-Jan-18 06:30N 69°34' E 017°58'510.3
2018-Jan-18 06:00N 69°30' E 018°07'2 4.8
2018-Jan-18 05:29N 69°27' E 018°06'4 7.4
2018-Jan-18 05:00N 69°24' E 018°06'5 9.9
2018-Jan-18 04:29N 69°19' E 017°59'510.1
2018-Jan-18 04:00N 69°14' E 017°58'3 5.1
2018-Jan-18 03:29N 69°13' E 018°05'0 0.0
2018-Jan-18 02:59N 69°13' E 018°05'0 0.0
2018-Jan-18 02:29N 69°13' E 018°05'0 0.0
2018-Jan-18 01:59N 69°13' E 018°05'0 0.0
2018-Jan-18 01:29N 69°13' E 018°05'0 0.0
2018-Jan-18 00:59N 69°13' E 018°05'0 0.0
2018-Jan-17 23:59N 69°13' E 018°05'0 0.1
2018-Jan-17 23:56N 69°13' E 018°05'  
Track history (hours):
 
Tides and Currents Weather Stations Pressure Air Temp Water Temp Dewpoint Dewpoint Depression Visibility Wind Speed Wind Dir Waves Ship Positions

Wilson Astakos

Last reported at 2018-Jan-22 18:00 UTC. Time now 2018-Jan-22 18:27 UTC.
Position N 71°08' E 023°43'.

Length 89 m; draft 5.2 m.

Type: Cargo ship. MMSI: 248448000.

Date/timePositionNaut miles runAvg speedWind from/ knotsBaromVisibWave heightAir tempDewpointWater temp
2018-Jan-22 18:00N 71°08' E 023°43'4 8.0
2018-Jan-22 17:30N 71°10' E 023°54'4 8.2
2018-Jan-22 17:01N 71°11' E 024°07'4 8.1
2018-Jan-22 16:29N 71°11' E 024°20'4 8.0
2018-Jan-22 16:00N 71°11' E 024°32'4 8.1
2018-Jan-22 15:30N 71°12' E 024°44'4 8.0
2018-Jan-22 15:00N 71°12' E 024°57'4 8.3
2018-Jan-22 14:30N 71°13' E 025°10'4 9.0
2018-Jan-22 14:00N 71°13' E 025°23'5 9.7
2018-Jan-22 13:30N 71°14' E 025°38'5 9.8
2018-Jan-22 13:00N 71°14' E 025°54'5 9.7
2018-Jan-22 12:30N 71°14' E 026°09'5 9.7
2018-Jan-22 12:01N 71°14' E 026°23'5 9.0
2018-Jan-22 11:29N 71°13' E 026°38'4 8.8
2018-Jan-22 11:00N 71°13' E 026°51'5 9.3
2018-Jan-22 10:30N 71°12' E 027°06'5 9.7
2018-Jan-22 09:59N 71°12' E 027°21'4 8.3
2018-Jan-22 09:30N 71°12' E 027°33'4 8.1
2018-Jan-22 08:59N 71°11' E 027°46'4 8.1
2018-Jan-22 08:30N 71°11' E 027°58'4 8.5
2018-Jan-22 08:00N 71°10' E 028°11'4 8.7
2018-Jan-22 07:30N 71°08' E 028°23'5 9.0
2018-Jan-22 07:00N 71°06' E 028°36'5 9.3
2018-Jan-22 06:30N 71°04' E 028°48'5 9.5
2018-Jan-22 06:00N 71°01' E 029°00'4 8.7
2018-Jan-22 05:30N 70°59' E 029°12'4 8.7
2018-Jan-22 05:00N 70°57' E 029°23'5 9.2
2018-Jan-22 04:30N 70°55' E 029°36'5 9.1
2018-Jan-22 04:00N 70°52' E 029°48'5 9.1
2018-Jan-22 03:30N 70°50' E 029°60'4 8.9
2018-Jan-22 03:00N 70°48' E 030°11'4 8.7
2018-Jan-22 02:30N 70°46' E 030°23'4 8.5
2018-Jan-22 01:59N 70°43' E 030°33'4 8.6
2018-Jan-22 01:31N 70°41' E 030°43'5 9.2
2018-Jan-22 00:59N 70°38' E 030°55'5 9.6
2018-Jan-22 00:30N 70°35' E 031°05'5 9.5
2018-Jan-22 00:00N 70°32' E 031°17'4 9.0
2018-Jan-21 23:30N 70°29' E 031°27'4 9.0
2018-Jan-21 23:00N 70°26' E 031°38'89 7.9
2018-Jan-21 11:49N 69°05' E 033°19'310.1
2018-Jan-21 11:30N 69°04' E 033°10'4 7.5
2018-Jan-21 11:00N 69°01' E 033°03'2 4.1
2018-Jan-21 10:28N 68°59' E 033°02'0 0.0
2018-Jan-21 09:58N 68°59' E 033°02'0 0.0
2018-Jan-21 09:28N 68°59' E 033°02'0 0.0
2018-Jan-21 08:58N 68°59' E 033°02'0 0.0
2018-Jan-21 08:28N 68°59' E 033°02'0 0.0
2018-Jan-21 07:58N 68°59' E 033°02'0 0.0
2018-Jan-21 07:28N 68°59' E 033°02'0 0.1
2018-Jan-21 06:58N 68°59' E 033°02'0 0.1
2018-Jan-21 06:28N 68°59' E 033°02'0 0.0
2018-Jan-21 05:58N 68°59' E 033°02'0 0.0
2018-Jan-21 05:28N 68°59' E 033°02'0 0.1
2018-Jan-21 04:58N 68°59' E 033°02'0 0.1
2018-Jan-21 04:28N 68°59' E 033°02'0 0.0
2018-Jan-21 03:58N 68°59' E 033°02'0 1.0
2018-Jan-21 03:30N 68°59' E 033°03'0 0.4
2018-Jan-21 02:59N 68°59' E 033°03'0 0.0
2018-Jan-21 02:29N 68°59' E 033°03'0 0.0
2018-Jan-21 01:59N 68°59' E 033°03'0 0.0
2018-Jan-21 01:29N 68°59' E 033°03'0 0.0
2018-Jan-21 00:59N 68°59' E 033°03'0 0.0
2018-Jan-21 00:29N 68°59' E 033°03'0 0.0
2018-Jan-20 23:59N 68°59' E 033°03'0 0.0
2018-Jan-20 23:29N 68°59' E 033°03'0 0.0
2018-Jan-20 22:59N 68°59' E 033°03'0 0.0
2018-Jan-20 22:29N 68°59' E 033°03'0 0.0
2018-Jan-20 21:59N 68°59' E 033°03'0 0.0
2018-Jan-20 21:29N 68°59' E 033°03'0 0.0
2018-Jan-20 20:59N 68°59' E 033°03'0 0.0
2018-Jan-20 20:29N 68°59' E 033°03'0 0.0
2018-Jan-20 19:59N 68°59' E 033°03'0 0.0
2018-Jan-20 19:29N 68°59' E 033°03'0 0.0
2018-Jan-20 18:59N 68°59' E 033°03'0 0.0
2018-Jan-20 18:29N 68°59' E 033°03'0 0.0
2018-Jan-20 17:59N 68°59' E 033°03'0 0.0
2018-Jan-20 17:29N 68°59' E 033°03'0 0.0
2018-Jan-20 16:59N 68°59' E 033°03'0 0.0
2018-Jan-20 16:29N 68°59' E 033°03'0 0.0
2018-Jan-20 15:59N 68°59' E 033°03'0 0.0
2018-Jan-20 15:29N 68°59' E 033°03'0 0.0
2018-Jan-20 14:59N 68°59' E 033°03'0 0.0
2018-Jan-20 14:29N 68°59' E 033°03'0 0.0
2018-Jan-20 13:59N 68°59' E 033°03'0 0.0
2018-Jan-20 13:29N 68°59' E 033°03'0 0.0
2018-Jan-20 12:59N 68°59' E 033°03'0 0.0
2018-Jan-20 12:29N 68°59' E 033°03'0 0.0
2018-Jan-20 11:59N 68°59' E 033°03'0 0.0
2018-Jan-20 11:29N 68°59' E 033°03'0 0.0
2018-Jan-20 10:59N 68°59' E 033°03'0 0.0
2018-Jan-20 10:29N 68°59' E 033°03'0 0.0
2018-Jan-20 09:59N 68°59' E 033°03'0 0.0
2018-Jan-20 09:29N 68°59' E 033°03'0 0.0
2018-Jan-20 08:59N 68°59' E 033°03'0 0.0
2018-Jan-20 08:29N 68°59' E 033°03'0 0.0
2018-Jan-20 07:59N 68°59' E 033°03'0 0.0
2018-Jan-20 07:29N 68°59' E 033°03'0 0.0
2018-Jan-20 06:59N 68°59' E 033°03'0 0.0
2018-Jan-20 06:29N 68°59' E 033°03'0 0.0
2018-Jan-20 05:59N 68°59' E 033°03'0 0.0
2018-Jan-20 05:29N 68°59' E 033°03'0 0.0
2018-Jan-20 04:59N 68°59' E 033°03'0 0.0
2018-Jan-20 04:31N 68°59' E 033°03'1 1.1
2018-Jan-20 04:00N 68°59' E 033°03'3 6.4
2018-Jan-20 03:30N 69°02' E 033°03'4 8.5
2018-Jan-20 03:00N 69°04' E 033°14'5 9.6
2018-Jan-20 02:30N 69°07' E 033°25'84 8.3
2018-Jan-19 16:21N 70°24' E 031°46'3 9.1
2018-Jan-19 16:00N 70°26' E 031°39'5 9.2
2018-Jan-19 15:30N 70°29' E 031°28'5 9.9
2018-Jan-19 15:00N 70°32' E 031°16'510.2
2018-Jan-19 14:30N 70°35' E 031°04'5 9.8
2018-Jan-19 14:00N 70°38' E 030°52'5 9.8
2018-Jan-19 13:30N 70°41' E 030°40'5 9.7
2018-Jan-19 13:00N 70°44' E 030°28'5 9.6
2018-Jan-19 12:30N 70°47' E 030°17'5 9.5
2018-Jan-19 12:00N 70°49' E 030°05'4 8.9
2018-Jan-19 11:30N 70°52' E 029°53'4 8.5
2018-Jan-19 11:00N 70°54' E 029°42'4 8.3
2018-Jan-19 10:30N 70°56' E 029°31'4 8.2
2018-Jan-19 10:00N 70°58' E 029°20'4 8.2
2018-Jan-19 09:30N 70°60' E 029°09'4 8.1
2018-Jan-19 09:00N 71°01' E 028°58'4 8.4
2018-Jan-19 08:30N 71°04' E 028°47'4 8.3
2018-Jan-19 08:00N 71°06' E 028°36'4 8.8
2018-Jan-19 07:30N 71°08' E 028°24'5 9.4
2018-Jan-19 07:00N 71°10' E 028°11'510.1
2018-Jan-19 06:30N 71°11' E 027°56'510.7
2018-Jan-19 06:00N 71°11' E 027°39'511.0
2018-Jan-19 05:30N 71°12' E 027°22'510.6
2018-Jan-19 05:00N 71°12' E 027°06'510.5
2018-Jan-19 04:30N 71°13' E 026°50'610.7
2018-Jan-19 03:59N 71°14' E 026°33'510.8
2018-Jan-19 03:30N 71°14' E 026°17'510.6
2018-Jan-19 03:00N 71°14' E 026°00'510.6
2018-Jan-19 02:30N 71°14' E 025°44'510.7
2018-Jan-19 02:00N 71°13' E 025°27'510.9
2018-Jan-19 01:30N 71°13' E 025°10'611.5
2018-Jan-19 01:00N 71°12' E 024°52'510.6
2018-Jan-19 00:30N 71°12' E 024°36'510.4
2018-Jan-19 00:00N 71°11' E 024°20'510.5
2018-Jan-18 23:30N 71°10' E 024°04'511.0
2018-Jan-18 23:00N 71°09' E 023°48'611.3
2018-Jan-18 22:30N 71°07' E 023°32'510.8
2018-Jan-18 22:00N 71°04' E 023°17'510.4
2018-Jan-18 21:30N 71°02' E 023°03'5 9.7
2018-Jan-18 21:00N 70°60' E 022°50'5 9.6
2018-Jan-18 20:30N 70°57' E 022°36'5 9.7
2018-Jan-18 20:00N 70°56' E 022°22'510.0
2018-Jan-18 19:30N 70°54' E 022°08'610.8
2018-Jan-18 18:59N 70°51' E 021°53'510.3
2018-Jan-18 18:30N 70°49' E 021°39'21 8.8
2018-Jan-18 16:06N 70°41' E 020°40'0 5.3
2018-Jan-18 16:00N 70°41' E 020°40'4 8.8
2018-Jan-18 15:30N 70°37' E 020°32'5 9.5
2018-Jan-18 15:00N 70°35' E 020°20'5 9.4
2018-Jan-18 14:30N 70°33' E 020°07'5 9.6
2018-Jan-18 14:00N 70°30' E 019°54'510.0
2018-Jan-18 13:29N 70°28' E 019°40'5 9.5
2018-Jan-18 13:00N 70°26' E 019°28'510.6
2018-Jan-18 12:30N 70°24' E 019°14'511.0
2018-Jan-18 12:00N 70°21' E 018°59'611.0
2018-Jan-18 11:30N 70°19' E 018°45'510.7
2018-Jan-18 11:00N 70°16' E 018°30'510.8
2018-Jan-18 10:30N 70°12' E 018°21'610.9
2018-Jan-18 09:59N 70°07' E 018°12'510.8
2018-Jan-18 09:30N 70°03' E 018°04'510.6
2018-Jan-18 09:00N 69°59' E 017°55'510.4
2018-Jan-18 08:30N 69°54' E 017°47'510.1
2018-Jan-18 08:00N 69°49' E 017°46'510.8
2018-Jan-18 07:30N 69°44' E 017°47'510.9
2018-Jan-18 07:00N 69°38' E 017°49'611.3
2018-Jan-18 06:30N 69°34' E 017°58'510.3
2018-Jan-18 06:00N 69°30' E 018°07'2 4.8
2018-Jan-18 05:29N 69°27' E 018°06'4 7.4
2018-Jan-18 05:00N 69°24' E 018°06'5 9.9
2018-Jan-18 04:29N 69°19' E 017°59'510.1
2018-Jan-18 04:00N 69°14' E 017°58'3 5.1
2018-Jan-18 03:29N 69°13' E 018°05'0 0.0
2018-Jan-18 02:59N 69°13' E 018°05'0 0.0
2018-Jan-18 02:29N 69°13' E 018°05'0 0.0
2018-Jan-18 01:59N 69°13' E 018°05'0 0.0
2018-Jan-18 01:29N 69°13' E 018°05'0 0.0
2018-Jan-18 00:59N 69°13' E 018°05'0 0.0
2018-Jan-17 23:59N 69°13' E 018°05'0 0.1
2018-Jan-17 23:56N 69°13' E 018°05'  

Dump ship's entire track history